createdAt,value
2023-04-09T00:00:17.588Z,69.13
2023-04-09T00:02:45.734Z,60.70
2023-04-09T00:05:14.172Z,60.80
2023-04-09T00:07:44.371Z,64.00
2023-04-09T00:10:14.087Z,64.70
2023-04-09T00:12:42.093Z,66.47
2023-04-09T00:15:14.941Z,64.27
2023-04-09T00:17:48.883Z,57.50
2023-04-09T00:20:17.294Z,52.87
2023-04-09T00:22:45.341Z,52.63
2023-04-09T00:25:14.885Z,53.13
2023-04-09T00:27:42.835Z,52.13
2023-04-09T00:30:11.549Z,54.57
2023-04-09T00:32:39.627Z,52.70
2023-04-09T00:35:08.278Z,52.67
2023-04-09T00:37:36.237Z,52.87
2023-04-09T00:40:04.264Z,51.87
2023-04-09T00:42:34.466Z,58.23
2023-04-09T00:45:02.485Z,52.30
2023-04-09T00:47:32.052Z,56.83
2023-04-09T00:50:01.680Z,54.43
2023-04-09T00:52:30.412Z,52.40
2023-04-09T00:55:00.150Z,51.23
2023-04-09T00:57:28.872Z,55.60
2023-04-09T00:59:58.389Z,52.50
2023-04-09T01:02:26.601Z,51.57
2023-04-09T01:04:54.800Z,49.23
2023-04-09T01:07:32.867Z,56.53
2023-04-09T01:10:17.304Z,54.57
2023-04-09T01:12:55.135Z,56.67
2023-04-09T01:15:27.984Z,58.87
2023-04-09T01:18:06.422Z,58.37
2023-04-09T01:20:37.233Z,56.50
2023-04-09T01:23:15.416Z,57.43
2023-04-09T01:25:50.843Z,57.50
2023-04-09T01:28:23.567Z,60.07
2023-04-09T01:30:54.706Z,60.87
2023-04-09T01:33:23.777Z,64.77
2023-04-09T01:35:52.970Z,59.50
2023-04-09T01:38:23.083Z,63.47
2023-04-09T01:40:51.839Z,69.70
2023-04-09T01:43:22.250Z,58.23
2023-04-09T01:45:50.944Z,63.97
2023-04-09T01:48:20.687Z,60.43
2023-04-09T01:50:49.212Z,66.63
2023-04-09T01:53:17.406Z,63.83
2023-04-09T01:55:45.413Z,66.60
2023-04-09T01:58:13.439Z,62.47
2023-04-09T02:00:48.612Z,63.80
2023-04-09T02:03:20.139Z,64.53
2023-04-09T02:05:54.164Z,61.73
2023-04-09T02:08:23.019Z,66.10
2023-04-09T02:10:55.558Z,61.83
2023-04-09T02:13:24.492Z,64.83
2023-04-09T02:15:54.102Z,66.17
2023-04-09T02:18:23.725Z,67.07
2023-04-09T02:20:53.236Z,71.93
2023-04-09T02:23:21.551Z,74.57
2023-04-09T02:25:49.757Z,68.47
2023-04-09T02:28:17.768Z,62.40
2023-04-09T02:30:45.958Z,59.13
2023-04-09T02:33:15.640Z,67.07
2023-04-09T02:35:43.818Z,66.13
2023-04-09T02:38:13.910Z,72.67
2023-04-09T02:40:42.264Z,64.43
2023-04-09T02:43:10.929Z,65.00
2023-04-09T02:45:38.950Z,64.93
2023-04-09T02:48:07.166Z,74.07
2023-04-09T02:50:36.553Z,67.67
2023-04-09T02:53:04.560Z,67.70
2023-04-09T02:55:32.891Z,63.00
2023-04-09T02:58:00.889Z,69.30
2023-04-09T03:00:28.894Z,68.60
2023-04-09T03:02:58.104Z,63.43
2023-04-09T03:05:26.447Z,70.00
2023-04-09T03:07:56.132Z,66.40
2023-04-09T03:10:24.212Z,66.97
2023-04-09T03:12:52.448Z,66.57
2023-04-09T03:15:20.631Z,68.60
2023-04-09T03:17:48.680Z,63.17
2023-04-09T03:20:16.826Z,64.93
2023-04-09T03:22:44.914Z,69.53
2023-04-09T03:25:14.416Z,70.50
2023-04-09T03:27:42.469Z,65.50
2023-04-09T03:30:12.635Z,60.60
2023-04-09T03:32:40.740Z,71.17
2023-04-09T03:35:09.395Z,68.27
2023-04-09T03:37:37.439Z,61.67
2023-04-09T03:40:06.511Z,62.03
2023-04-09T03:42:37.390Z,71.67
2023-04-09T03:45:06.378Z,65.03
2023-04-09T03:47:34.638Z,66.37
2023-04-09T03:50:02.645Z,69.50
2023-04-09T03:52:30.650Z,68.63
2023-04-09T03:54:58.813Z,63.10
2023-04-09T03:57:26.817Z,62.57
2023-04-09T03:59:56.170Z,67.97
2023-04-09T04:02:26.821Z,69.03
2023-04-09T04:04:55.114Z,69.73
2023-04-09T04:07:23.165Z,65.93
2023-04-09T04:09:51.223Z,67.73
2023-04-09T04:12:20.407Z,71.13
2023-04-09T04:14:48.473Z,75.23
2023-04-09T04:17:17.954Z,70.07
2023-04-09T04:19:46.039Z,69.93
2023-04-09T04:22:14.029Z,73.63
2023-04-09T04:24:42.023Z,73.83
2023-04-09T04:27:10.050Z,69.13
2023-04-09T04:29:38.926Z,71.63
2023-04-09T04:32:07.329Z,71.63
2023-04-09T04:34:36.773Z,69.43
2023-04-09T04:37:04.805Z,68.53
2023-04-09T04:39:32.878Z,66.93
2023-04-09T04:42:01.319Z,67.00
2023-04-09T04:44:29.336Z,66.67
2023-04-09T04:46:57.403Z,64.10
2023-04-09T04:49:25.516Z,68.27
2023-04-09T04:51:54.918Z,62.73
2023-04-09T04:54:22.934Z,71.17
2023-04-09T04:56:50.951Z,71.77
2023-04-09T04:59:18.964Z,67.60
2023-04-09T05:01:47.008Z,69.50
2023-04-09T05:04:15.048Z,64.80
2023-04-09T05:06:43.096Z,66.30
2023-04-09T05:09:12.548Z,65.00
2023-04-09T05:11:40.561Z,73.37
2023-04-09T05:14:08.689Z,69.27
2023-04-09T05:16:36.781Z,67.73
2023-04-09T05:19:04.898Z,64.57
2023-04-09T05:21:33.247Z,61.53
2023-04-09T05:24:01.260Z,71.60
2023-04-09T05:26:30.707Z,68.77
2023-04-09T05:28:58.794Z,68.33
2023-04-09T05:31:26.778Z,64.10
2023-04-09T05:33:54.845Z,66.37
2023-04-09T05:36:22.832Z,65.47
2023-04-09T05:38:51.137Z,66.03
2023-04-09T05:41:19.330Z,60.93
2023-04-09T05:43:48.715Z,66.07
2023-04-09T05:46:16.942Z,66.63
2023-04-09T05:48:45.061Z,68.43
2023-04-09T05:51:13.140Z,61.63
2023-04-09T05:53:41.266Z,67.03
2023-04-09T05:56:15.466Z,63.17
2023-04-09T05:58:43.454Z,61.03
2023-04-09T06:01:12.812Z,61.73
2023-04-09T06:03:41.069Z,59.53
2023-04-09T06:06:09.173Z,58.47
2023-04-09T06:08:37.246Z,55.40
2023-04-09T06:11:07.824Z,56.03
2023-04-09T06:13:35.825Z,52.07
2023-04-09T06:16:05.741Z,52.63
2023-04-09T06:18:35.169Z,55.27
2023-04-09T06:21:03.904Z,53.67
2023-04-09T06:23:32.089Z,52.20
2023-04-09T06:26:00.357Z,51.93
2023-04-09T06:28:29.822Z,51.97
2023-04-09T06:30:58.175Z,50.83
2023-04-09T06:33:26.594Z,53.00
2023-04-09T06:35:56.311Z,51.83
2023-04-09T06:38:24.331Z,48.20
2023-04-09T06:40:52.348Z,50.37
2023-04-09T06:43:20.538Z,55.50
2023-04-09T06:45:48.608Z,58.83
2023-04-09T06:48:16.730Z,47.70
2023-04-09T06:50:45.647Z,57.70
2023-04-09T06:53:16.580Z,52.87
2023-04-09T06:55:44.624Z,54.27
2023-04-09T06:58:12.730Z,53.00
2023-04-09T07:00:40.882Z,52.20
2023-04-09T07:03:09.259Z,51.83
2023-04-09T07:05:39.285Z,55.30
2023-04-09T07:08:07.357Z,54.30
2023-04-09T07:10:36.839Z,54.27
2023-04-09T07:13:05.102Z,52.67
2023-04-09T07:15:33.249Z,56.43
2023-04-09T07:18:01.359Z,51.83
2023-04-09T07:20:29.484Z,53.60
2023-04-09T07:22:57.573Z,57.27
2023-04-09T07:25:25.570Z,51.57
2023-04-09T07:27:55.753Z,47.13
2023-04-09T07:30:23.946Z,48.83
2023-04-09T07:32:52.340Z,49.17
2023-04-09T07:35:20.827Z,52.33
2023-04-09T07:37:49.124Z,50.37
2023-04-09T07:40:17.254Z,56.33
2023-04-09T07:42:45.367Z,53.83
2023-04-09T07:45:15.033Z,53.67
2023-04-09T07:47:43.057Z,53.83
2023-04-09T07:50:11.570Z,51.70
2023-04-09T07:52:39.747Z,56.47
2023-04-09T07:55:08.170Z,54.50
2023-04-09T07:57:37.110Z,56.87
2023-04-09T08:00:06.826Z,50.27
2023-04-09T08:02:36.503Z,48.80
2023-04-09T08:05:04.768Z,58.23
2023-04-09T08:07:32.743Z,58.30
2023-04-09T08:10:00.962Z,61.67
2023-04-09T08:12:29.022Z,53.27
2023-04-09T08:14:58.077Z,49.63
2023-04-09T08:17:26.171Z,50.10
2023-04-09T08:19:55.541Z,49.97
2023-04-09T08:22:24.584Z,50.80
2023-04-09T08:24:53.549Z,53.63
2023-04-09T08:27:22.155Z,58.43
2023-04-09T08:29:51.852Z,51.63
2023-04-09T08:32:20.055Z,50.97
2023-04-09T08:34:48.228Z,49.30
2023-04-09T08:37:17.740Z,57.30
2023-04-09T08:39:45.768Z,58.17
2023-04-09T08:42:16.180Z,48.57
2023-04-09T08:44:45.189Z,50.47
2023-04-09T08:47:14.122Z,55.10
2023-04-09T08:49:42.227Z,57.33
2023-04-09T08:52:10.234Z,53.07
2023-04-09T08:54:39.707Z,49.37
2023-04-09T08:57:08.008Z,58.80
2023-04-09T08:59:37.342Z,60.47
2023-04-09T09:02:08.839Z,62.57
2023-04-09T09:04:46.562Z,54.33
2023-04-09T09:07:14.892Z,57.90
2023-04-09T09:09:55.667Z,56.70
2023-04-09T09:12:34.002Z,56.97
2023-04-09T09:15:02.760Z,52.83
2023-04-09T09:17:31.205Z,51.97
2023-04-09T09:19:59.440Z,55.30
2023-04-09T09:22:27.478Z,50.00
2023-04-09T09:24:57.453Z,49.37
2023-04-09T09:27:39.328Z,47.77
2023-04-09T09:30:09.254Z,48.07
2023-04-09T09:32:37.439Z,46.63
2023-04-09T09:35:07.194Z,38.13
2023-04-09T09:37:35.682Z,40.13
2023-04-09T09:40:05.678Z,39.33
2023-04-09T09:42:33.768Z,37.77
2023-04-09T09:45:02.661Z,35.57
2023-04-09T09:47:32.070Z,35.50
2023-04-09T09:50:00.252Z,35.40
2023-04-09T09:52:28.266Z,33.77
2023-04-09T09:54:58.867Z,34.03
2023-04-09T09:57:31.712Z,34.50
2023-04-09T10:00:04.036Z,36.03
2023-04-09T10:02:41.008Z,34.27
2023-04-09T10:05:10.463Z,36.87
2023-04-09T10:07:39.663Z,35.33
2023-04-09T10:10:09.742Z,35.87
2023-04-09T10:12:41.812Z,33.83
2023-04-09T10:15:11.141Z,32.10
2023-04-09T10:17:39.856Z,34.53
2023-04-09T10:20:12.867Z,32.50
2023-04-09T10:22:41.895Z,33.97
2023-04-09T10:25:11.136Z,33.37
2023-04-09T10:27:40.503Z,34.77
2023-04-09T10:30:10.726Z,35.63
2023-04-09T10:32:40.023Z,34.47
2023-04-09T10:35:11.333Z,34.57
2023-04-09T10:37:39.379Z,31.47
2023-04-09T10:40:10.683Z,33.23
2023-04-09T10:42:45.296Z,31.87
2023-04-09T10:45:14.946Z,31.20
2023-04-09T10:47:46.308Z,31.57
2023-04-09T10:50:21.943Z,32.37
2023-04-09T10:52:54.450Z,31.20
2023-04-09T10:55:37.409Z,28.77
2023-04-09T10:58:10.434Z,33.00
2023-04-09T11:00:41.889Z,31.67
2023-04-09T11:03:24.468Z,30.70
2023-04-09T11:06:00.986Z,32.53
2023-04-09T11:08:33.418Z,31.13
2023-04-09T11:11:02.407Z,28.27
2023-04-09T11:13:34.126Z,29.60
2023-04-09T11:16:04.124Z,43.47
2023-04-09T11:18:34.562Z,32.27
2023-04-09T11:21:04.229Z,32.70
2023-04-09T11:23:33.562Z,31.53
2023-04-09T11:26:01.889Z,32.43
2023-04-09T11:28:31.288Z,31.83
2023-04-09T11:30:59.382Z,30.83
2023-04-09T11:33:34.158Z,28.70
2023-04-09T11:36:05.563Z,30.60
2023-04-09T11:38:33.699Z,32.27
2023-04-09T11:41:03.319Z,30.00
2023-04-09T11:43:32.811Z,33.70
2023-04-09T11:46:01.135Z,33.87
2023-04-09T11:48:29.378Z,34.90
2023-04-09T11:50:58.212Z,32.27
2023-04-09T11:53:32.133Z,31.80
2023-04-09T11:56:00.754Z,29.57
2023-04-09T11:58:29.052Z,32.17
2023-04-09T12:01:00.156Z,33.10
2023-04-09T12:03:32.995Z,31.07
2023-04-09T12:06:03.650Z,29.60
2023-04-09T12:08:34.572Z,31.20
2023-04-09T12:11:10.484Z,30.77
2023-04-09T12:13:42.860Z,37.53
2023-04-09T12:16:12.466Z,33.63
2023-04-09T12:18:41.137Z,33.97
2023-04-09T12:21:09.203Z,34.50
2023-04-09T12:23:37.263Z,34.03
2023-04-09T12:26:05.571Z,35.70
2023-04-09T12:28:33.569Z,33.80
2023-04-09T12:31:03.492Z,37.73
2023-04-09T12:33:34.019Z,38.13
2023-04-09T12:36:02.132Z,34.00
2023-04-09T12:38:30.393Z,36.53
2023-04-09T12:40:58.374Z,31.93
2023-04-09T12:43:26.436Z,35.93
2023-04-09T12:45:54.447Z,36.60
2023-04-09T12:48:22.474Z,35.07
2023-04-09T12:50:51.837Z,33.07
2023-04-09T12:53:19.838Z,32.93
2023-04-09T12:55:47.953Z,33.57
2023-04-09T12:58:15.948Z,33.33
2023-04-09T13:00:44.430Z,33.50
2023-04-09T13:03:13.176Z,33.23
2023-04-09T13:05:41.846Z,32.93
2023-04-09T13:08:11.250Z,32.87
2023-04-09T13:10:39.264Z,33.30
2023-04-09T13:13:11.937Z,33.23
2023-04-09T13:15:40.069Z,38.00
2023-04-09T13:18:08.178Z,37.10
2023-04-09T13:20:36.761Z,32.13
2023-04-09T13:23:04.783Z,33.53
2023-04-09T13:25:34.196Z,33.60
2023-04-09T13:28:02.239Z,33.10
2023-04-09T13:30:30.361Z,37.37
2023-04-09T13:32:58.386Z,32.97
2023-04-09T13:35:26.436Z,33.17
2023-04-09T13:37:54.426Z,32.20
2023-04-09T13:40:22.487Z,37.77
2023-04-09T13:42:51.828Z,32.53
2023-04-09T13:45:21.041Z,34.17
2023-04-09T13:47:49.425Z,34.83
2023-04-09T13:50:17.499Z,31.80
2023-04-09T13:52:45.578Z,34.07
2023-04-09T13:55:13.610Z,32.67
2023-04-09T13:57:41.598Z,33.30
2023-04-09T14:00:12.156Z,33.43
2023-04-09T14:02:40.465Z,32.43
2023-04-09T14:05:10.113Z,32.80
2023-04-09T14:07:38.105Z,35.90
2023-04-09T14:10:07.062Z,33.87
2023-04-09T14:12:35.139Z,34.63
2023-04-09T14:15:03.280Z,32.20
2023-04-09T14:17:32.725Z,32.77
2023-04-09T14:20:03.525Z,34.53
2023-04-09T14:22:31.613Z,33.90
2023-04-09T14:25:00.065Z,33.50
2023-04-09T14:27:28.294Z,32.43
2023-04-09T14:29:56.420Z,34.70
2023-04-09T14:32:24.547Z,33.23
2023-04-09T14:34:53.964Z,32.60
2023-04-09T14:37:22.259Z,33.40
2023-04-09T14:39:50.373Z,34.57
2023-04-09T14:42:19.080Z,31.23
2023-04-09T14:44:47.358Z,31.77
2023-04-09T14:47:15.485Z,31.70
2023-04-09T14:49:43.509Z,31.30
2023-04-09T14:52:13.057Z,31.70
2023-04-09T14:54:41.075Z,30.97
2023-04-09T14:57:09.171Z,32.20
2023-04-09T14:59:37.608Z,32.60
2023-04-09T15:02:05.966Z,30.60
2023-04-09T15:04:34.298Z,32.57
2023-04-09T15:07:02.483Z,32.27
2023-04-09T15:09:31.852Z,28.17
2023-04-09T15:11:59.952Z,31.27
2023-04-09T15:14:30.606Z,31.67
2023-04-09T15:16:58.622Z,27.97
2023-04-09T15:19:26.710Z,28.17
2023-04-09T15:21:54.755Z,27.87
2023-04-09T15:24:22.792Z,30.63
2023-04-09T15:26:52.813Z,26.73
2023-04-09T15:29:20.843Z,29.23
2023-04-09T15:31:49.700Z,26.40
2023-04-09T15:34:17.802Z,27.03
2023-04-09T15:36:46.563Z,29.00
2023-04-09T15:39:14.899Z,28.57
2023-04-09T15:41:42.908Z,29.00
2023-04-09T15:44:12.417Z,25.97
2023-04-09T15:46:40.414Z,27.67
2023-04-09T15:49:09.720Z,29.23
2023-04-09T15:51:37.888Z,26.60
2023-04-09T15:54:05.960Z,28.00
2023-04-09T15:56:36.099Z,27.07
2023-04-09T15:59:05.416Z,27.30
2023-04-09T16:01:35.535Z,27.00
2023-04-09T16:04:04.780Z,27.10
2023-04-09T16:06:33.109Z,27.67
2023-04-09T16:09:01.865Z,27.90
2023-04-09T16:11:29.916Z,29.50
2023-04-09T16:13:59.061Z,28.27
2023-04-09T16:16:27.533Z,26.13
2023-04-09T16:18:58.050Z,26.83
2023-04-09T16:21:27.590Z,28.63
2023-04-09T16:23:56.013Z,29.00
2023-04-09T16:26:24.011Z,26.87
2023-04-09T16:28:52.149Z,26.27
2023-04-09T16:31:20.346Z,28.70
2023-04-09T16:33:49.506Z,26.07
2023-04-09T16:36:19.023Z,26.53
2023-04-09T16:38:47.273Z,30.17
2023-04-09T16:41:15.648Z,26.70
2023-04-09T16:43:43.740Z,27.13
2023-04-09T16:46:11.797Z,27.37
2023-04-09T16:48:41.720Z,30.20
2023-04-09T16:51:09.900Z,27.27
2023-04-09T16:53:40.129Z,25.97
2023-04-09T16:56:08.972Z,25.33
2023-04-09T16:58:37.810Z,28.57
2023-04-09T17:01:06.444Z,27.30
2023-04-09T17:03:34.726Z,25.13
2023-04-09T17:06:04.441Z,28.13
2023-04-09T17:08:33.536Z,28.77
2023-04-09T17:11:03.163Z,30.43
2023-04-09T17:13:32.234Z,27.43
2023-04-09T17:16:00.572Z,29.83
2023-04-09T17:18:28.593Z,27.10
2023-04-09T17:20:57.070Z,29.30
2023-04-09T17:23:25.083Z,30.27
2023-04-09T17:25:53.275Z,29.77
2023-04-09T17:28:22.773Z,30.27
2023-04-09T17:30:50.955Z,29.50
2023-04-09T17:33:18.975Z,29.57
2023-04-09T17:35:46.986Z,26.83
2023-04-09T17:38:20.568Z,26.80
2023-04-09T17:40:49.083Z,28.53
2023-04-09T17:43:17.605Z,28.37
2023-04-09T17:45:47.022Z,28.20
2023-04-09T17:48:15.047Z,27.03
2023-04-09T17:50:43.140Z,28.67
2023-04-09T17:53:11.625Z,28.70
2023-04-09T17:55:39.670Z,27.30
2023-04-09T17:58:07.661Z,30.07
2023-04-09T18:00:35.940Z,33.30
2023-04-09T18:03:05.910Z,30.00
2023-04-09T18:05:35.547Z,35.07
2023-04-09T18:08:04.859Z,34.93
2023-04-09T18:10:32.940Z,34.73
2023-04-09T18:13:00.947Z,33.10
2023-04-09T18:15:29.260Z,28.23
2023-04-09T18:17:57.306Z,29.00
2023-04-09T18:20:26.736Z,29.43
2023-04-09T18:22:55.540Z,36.13
2023-04-09T18:25:23.609Z,30.87
2023-04-09T18:27:51.658Z,32.43
2023-04-09T18:30:19.943Z,31.27
2023-04-09T18:32:49.162Z,28.83
2023-04-09T18:35:17.400Z,33.30
2023-04-09T18:37:46.896Z,29.20
2023-04-09T18:40:17.780Z,30.67
2023-04-09T18:42:46.194Z,31.53
2023-04-09T18:45:14.211Z,34.93
2023-04-09T18:47:42.268Z,32.03
2023-04-09T18:50:11.164Z,30.73
2023-04-09T18:52:39.200Z,31.70
2023-04-09T18:55:11.226Z,33.47
2023-04-09T18:57:39.223Z,33.40
2023-04-09T19:00:08.761Z,30.97
2023-04-09T19:02:37.279Z,33.43
2023-04-09T19:05:07.315Z,33.70
2023-04-09T19:07:36.107Z,32.73
2023-04-09T19:10:04.324Z,32.53
2023-04-09T19:12:33.711Z,33.47
2023-04-09T19:15:01.928Z,33.47
2023-04-09T19:17:30.081Z,35.77
2023-04-09T19:19:58.099Z,33.37
2023-04-09T19:22:26.625Z,34.37
2023-04-09T19:24:54.645Z,36.33
2023-04-09T19:27:22.876Z,34.13
2023-04-09T19:29:53.212Z,36.10
2023-04-09T19:32:21.230Z,30.83
2023-04-09T19:34:49.231Z,37.83
2023-04-09T19:37:18.878Z,35.87
2023-04-09T19:39:46.947Z,33.83
2023-04-09T19:42:14.979Z,32.57
2023-04-09T19:44:42.964Z,36.60
2023-04-09T19:47:12.444Z,33.43
2023-04-09T19:49:41.624Z,33.90
2023-04-09T19:52:09.703Z,35.43
2023-04-09T19:54:37.979Z,30.73
2023-04-09T19:57:12.178Z,32.27
2023-04-09T19:59:40.233Z,32.20
2023-04-09T20:02:08.694Z,33.57
2023-04-09T20:04:38.224Z,34.47
2023-04-09T20:07:06.519Z,30.33
2023-04-09T20:09:34.654Z,32.67
2023-04-09T20:12:06.933Z,32.00
2023-04-09T20:14:35.053Z,29.63
2023-04-09T20:17:03.223Z,35.53
2023-04-09T20:19:31.257Z,33.27
2023-04-09T20:22:01.239Z,36.13
2023-04-09T20:24:29.312Z,33.30
2023-04-09T20:26:59.436Z,32.53
2023-04-09T20:29:27.501Z,35.97
2023-04-09T20:31:55.552Z,32.90
2023-04-09T20:34:26.947Z,32.73
2023-04-09T20:36:55.448Z,32.83
2023-04-09T20:39:26.875Z,31.80
2023-04-09T20:41:56.515Z,33.40
2023-04-09T20:44:24.835Z,33.40
2023-04-09T20:46:52.852Z,35.43
2023-04-09T20:49:21.125Z,34.03
2023-04-09T20:51:49.893Z,35.20
2023-04-09T20:54:18.106Z,34.23
2023-04-09T20:56:47.606Z,31.83
2023-04-09T20:59:15.956Z,32.37
2023-04-09T21:01:44.221Z,32.27
2023-04-09T21:04:12.773Z,30.87
2023-04-09T21:06:41.240Z,33.43
2023-04-09T21:09:09.318Z,36.33
2023-04-09T21:11:37.341Z,31.57
2023-04-09T21:14:06.957Z,33.93
2023-04-09T21:16:35.007Z,33.13
2023-04-09T21:19:06.958Z,38.00
2023-04-09T21:21:35.398Z,31.97
2023-04-09T21:24:03.926Z,31.53
2023-04-09T21:26:48.746Z,29.67
2023-04-09T21:29:20.687Z,33.53
2023-04-09T21:31:49.287Z,30.63
2023-04-09T21:34:17.791Z,33.03
2023-04-09T21:36:46.266Z,30.70
2023-04-09T21:39:14.365Z,36.87
2023-04-09T21:41:42.401Z,31.80
2023-04-09T21:44:10.446Z,34.57
2023-04-09T21:46:41.710Z,31.40
2023-04-09T21:49:09.970Z,34.00
2023-04-09T21:51:38.013Z,31.17
2023-04-09T21:54:08.465Z,34.27
2023-04-09T21:56:36.959Z,28.23
2023-04-09T21:59:05.510Z,35.73
2023-04-09T22:01:35.099Z,35.33
2023-04-09T22:04:05.000Z,30.90
2023-04-09T22:06:33.119Z,36.63
2023-04-09T22:09:01.851Z,30.87
2023-04-09T22:11:30.640Z,31.73
2023-04-09T22:13:59.211Z,33.33
2023-04-09T22:16:27.552Z,29.87
2023-04-09T22:18:56.165Z,33.17
2023-04-09T22:21:26.815Z,30.47
2023-04-09T22:23:54.858Z,35.23
2023-04-09T22:26:22.951Z,35.13
2023-04-09T22:28:51.618Z,35.17
2023-04-09T22:31:21.557Z,36.27
2023-04-09T22:33:50.327Z,34.43
2023-04-09T22:36:18.326Z,33.73
2023-04-09T22:38:47.713Z,36.30
2023-04-09T22:41:17.520Z,32.40
2023-04-09T22:43:45.603Z,32.27
2023-04-09T22:46:13.635Z,31.53
2023-04-09T22:48:44.758Z,35.03
2023-04-09T22:51:13.646Z,37.63
2023-04-09T22:53:41.662Z,34.37
2023-04-09T22:56:11.237Z,33.67
2023-04-09T22:58:39.572Z,32.17
2023-04-09T23:01:08.220Z,30.03
2023-04-09T23:03:36.370Z,31.37
2023-04-09T23:06:04.668Z,31.63
2023-04-09T23:08:32.696Z,32.30
2023-04-09T23:11:01.153Z,31.07
2023-04-09T23:13:30.616Z,31.83
2023-04-09T23:15:58.875Z,32.57
2023-04-09T23:18:26.874Z,32.00
2023-04-09T23:20:54.970Z,34.43
2023-04-09T23:23:22.937Z,34.57
2023-04-09T23:25:50.940Z,33.63
2023-04-09T23:28:18.937Z,28.90
2023-04-09T23:30:48.316Z,32.40
2023-04-09T23:33:16.336Z,34.03
2023-04-09T23:35:44.360Z,30.23
2023-04-09T23:38:12.419Z,30.57
2023-04-09T23:40:40.496Z,32.37
2023-04-09T23:43:08.517Z,30.53
2023-04-09T23:45:36.840Z,35.43
2023-04-09T23:48:07.440Z,31.60
2023-04-09T23:50:39.232Z,32.90
2023-04-09T23:53:07.651Z,30.67
2023-04-09T23:55:38.133Z,33.50
2023-04-09T23:58:06.272Z,30.10
